createdAt,value
2017-05-27T00:00:24.726Z,80.45
2017-05-27T00:01:26.191Z,79.97
2017-05-27T00:02:27.654Z,80.07
2017-05-27T00:03:29.112Z,80.45
2017-05-27T00:04:30.568Z,80.35
2017-05-27T00:05:32.027Z,80.16
2017-05-27T00:06:33.491Z,80.64
2017-05-27T00:07:34.953Z,80.40
2017-05-27T00:08:36.410Z,80.30
2017-05-27T00:09:37.868Z,79.91
2017-05-27T00:10:39.321Z,80.16
2017-05-27T00:11:40.820Z,80.11
2017-05-27T00:12:42.286Z,80.87
2017-05-27T00:13:43.747Z,80.74
2017-05-27T00:14:45.209Z,80.78
2017-05-27T00:15:46.658Z,80.30
2017-05-27T00:16:48.125Z,80.64
2017-05-27T00:17:49.583Z,80.74
2017-05-27T00:18:51.037Z,80.93
2017-05-27T00:19:52.504Z,81.07
2017-05-27T00:20:53.954Z,81.22
2017-05-27T00:21:55.421Z,81.02
2017-05-27T00:22:56.909Z,81.12
2017-05-27T00:23:58.361Z,81.31
2017-05-27T00:24:59.824Z,80.49
2017-05-27T00:26:01.954Z,81.02
2017-05-27T00:27:03.418Z,81.02
2017-05-27T00:28:04.876Z,81.31
2017-05-27T00:29:06.356Z,81.60
2017-05-27T00:30:07.808Z,81.41
2017-05-27T00:31:09.265Z,81.22
2017-05-27T00:32:10.723Z,81.60
2017-05-27T00:33:12.177Z,81.41
2017-05-27T00:34:13.645Z,81.70
2017-05-27T00:35:15.101Z,81.60
2017-05-27T00:36:16.559Z,81.70
2017-05-27T00:37:18.023Z,81.98
2017-05-27T00:38:19.489Z,82.37
2017-05-27T00:39:20.940Z,82.37
2017-05-27T00:40:22.399Z,82.56
2017-05-27T00:41:23.851Z,82.56
2017-05-27T00:42:25.308Z,82.56
2017-05-27T00:43:26.762Z,82.56
2017-05-27T00:44:28.225Z,82.85
2017-05-27T00:45:29.686Z,82.56
2017-05-27T00:46:31.145Z,82.75
2017-05-27T00:47:32.601Z,82.08
2017-05-27T00:48:34.059Z,82.27
2017-05-27T00:49:35.535Z,82.27
2017-05-27T00:50:36.997Z,82.56
2017-05-27T00:51:38.459Z,82.37
2017-05-27T00:52:39.919Z,82.65
2017-05-27T00:53:41.373Z,82.75
2017-05-27T00:54:42.826Z,83.00
2017-05-27T00:55:44.279Z,83.00
2017-05-27T00:56:45.773Z,83.19
2017-05-27T00:57:47.232Z,83.00
2017-05-27T00:58:48.690Z,82.94
2017-05-27T00:59:50.191Z,83.00
2017-05-27T01:00:51.600Z,83.67
2017-05-27T01:01:53.055Z,83.95
2017-05-27T01:02:54.525Z,84.82
2017-05-27T01:03:55.996Z,84.91
2017-05-27T01:04:57.453Z,85.39
2017-05-27T01:05:58.917Z,85.54
2017-05-27T01:07:00.368Z,86.21
2017-05-27T01:08:01.862Z,85.64
2017-05-27T01:09:03.322Z,85.54
2017-05-27T01:10:04.781Z,84.72
2017-05-27T01:11:06.245Z,84.58
2017-05-27T01:12:07.713Z,84.53
2017-05-27T01:13:09.181Z,84.49
2017-05-27T01:14:10.639Z,85.39
2017-05-27T01:15:12.096Z,84.44
2017-05-27T01:16:13.565Z,84.53
2017-05-27T01:17:15.023Z,84.49
2017-05-27T01:18:16.486Z,85.11
2017-05-27T01:19:17.943Z,85.01
2017-05-27T01:20:19.400Z,84.82
2017-05-27T01:21:20.880Z,84.44
2017-05-27T01:22:22.330Z,84.91
2017-05-27T01:23:23.790Z,84.91
2017-05-27T01:24:25.247Z,85.16
2017-05-27T01:25:26.708Z,85.39
2017-05-27T01:26:28.166Z,85.54
2017-05-27T01:27:29.626Z,85.54
2017-05-27T01:28:31.081Z,85.06
2017-05-27T01:29:32.538Z,85.06
2017-05-27T01:30:33.995Z,84.39
2017-05-27T01:31:35.453Z,84.63
2017-05-27T01:32:36.905Z,84.25
2017-05-27T01:33:38.369Z,84.72
2017-05-27T01:34:39.818Z,84.25
2017-05-27T01:35:41.279Z,83.95
2017-05-27T01:36:42.744Z,84.25
2017-05-27T01:37:44.201Z,83.48
2017-05-27T01:38:45.661Z,83.67
2017-05-27T01:39:47.113Z,84.34
2017-05-27T01:40:48.578Z,83.76
2017-05-27T01:41:50.040Z,83.38
2017-05-27T01:42:51.491Z,83.48
2017-05-27T01:43:52.940Z,83.48
2017-05-27T01:44:54.399Z,83.19
2017-05-27T01:45:55.856Z,83.48
2017-05-27T01:46:57.326Z,83.38
2017-05-27T01:47:58.790Z,83.38
2017-05-27T01:49:00.242Z,83.67
2017-05-27T01:50:01.714Z,83.19
2017-05-27T01:51:03.180Z,83.48
2017-05-27T01:52:04.632Z,83.82
2017-05-27T01:53:06.091Z,84.11
2017-05-27T01:54:07.544Z,85.06
2017-05-27T01:55:09.002Z,85.25
2017-05-27T01:56:10.463Z,84.78
2017-05-27T01:57:11.915Z,84.58
2017-05-27T01:58:13.371Z,84.20
2017-05-27T01:59:14.826Z,84.15
2017-05-27T02:00:16.284Z,84.15
2017-05-27T02:01:17.735Z,84.05
2017-05-27T02:02:19.194Z,84.39
2017-05-27T02:03:20.648Z,84.58
2017-05-27T02:04:22.104Z,84.88
2017-05-27T02:05:23.566Z,84.88
2017-05-27T02:06:25.242Z,84.39
2017-05-27T02:07:26.692Z,84.68
2017-05-27T02:08:28.155Z,84.39
2017-05-27T02:09:29.620Z,84.88
2017-05-27T02:10:31.081Z,84.97
2017-05-27T02:11:32.542Z,84.30
2017-05-27T02:12:33.988Z,84.39
2017-05-27T02:13:35.447Z,84.49
2017-05-27T02:14:36.901Z,84.39
2017-05-27T02:15:38.360Z,84.30
2017-05-27T02:16:39.820Z,84.49
2017-05-27T02:17:41.282Z,85.16
2017-05-27T02:18:42.735Z,85.16
2017-05-27T02:19:44.193Z,85.06
2017-05-27T02:20:45.649Z,85.06
2017-05-27T02:21:47.104Z,85.06
2017-05-27T02:22:48.555Z,85.25
2017-05-27T02:23:50.016Z,85.06
2017-05-27T02:24:51.470Z,85.06
2017-05-27T02:25:52.925Z,85.25
2017-05-27T02:26:54.389Z,84.39
2017-05-27T02:27:55.866Z,84.68
2017-05-27T02:28:57.317Z,85.25
2017-05-27T02:29:58.774Z,85.16
2017-05-27T02:31:00.232Z,85.35
2017-05-27T02:32:01.689Z,85.45
2017-05-27T02:33:03.140Z,86.21
2017-05-27T02:34:04.597Z,85.98
2017-05-27T02:35:06.050Z,86.17
2017-05-27T02:36:07.515Z,86.36
2017-05-27T02:37:08.970Z,86.84
2017-05-27T02:38:10.424Z,86.84
2017-05-27T02:39:11.883Z,86.74
2017-05-27T02:40:13.336Z,87.23
2017-05-27T02:41:14.793Z,87.32
2017-05-27T02:42:16.257Z,87.23
2017-05-27T02:43:17.713Z,87.13
2017-05-27T02:44:19.167Z,87.23
2017-05-27T02:45:20.628Z,87.23
2017-05-27T02:46:22.090Z,87.41
2017-05-27T02:47:23.542Z,87.13
2017-05-27T02:48:25.002Z,87.51
2017-05-27T02:49:26.457Z,88.18
2017-05-27T02:50:27.914Z,87.32
2017-05-27T02:51:29.375Z,87.80
2017-05-27T02:52:30.841Z,87.80
2017-05-27T02:53:32.298Z,88.71
2017-05-27T02:54:33.755Z,88.81
2017-05-27T02:55:35.208Z,89.48
2017-05-27T02:56:36.666Z,89.19
2017-05-27T02:57:38.124Z,89.29
2017-05-27T02:58:39.581Z,89.95
2017-05-27T02:59:41.036Z,89.95
2017-05-27T03:00:42.501Z,89.58
2017-05-27T03:01:43.956Z,89.00
2017-05-27T03:02:45.406Z,88.62
2017-05-27T03:03:46.865Z,88.52
2017-05-27T03:04:48.318Z,88.81
2017-05-27T03:05:49.771Z,88.81
2017-05-27T03:06:51.246Z,88.81
2017-05-27T03:07:52.703Z,89.38
2017-05-27T03:08:54.167Z,89.19
2017-05-27T03:09:55.620Z,89.86
2017-05-27T03:10:57.082Z,90.62
2017-05-27T03:11:58.535Z,90.44
2017-05-27T03:12:59.994Z,89.95
2017-05-27T03:14:01.473Z,89.76
2017-05-27T03:15:02.933Z,89.76
2017-05-27T03:16:04.394Z,89.95
2017-05-27T03:17:05.849Z,89.29
2017-05-27T03:18:07.304Z,90.05
2017-05-27T03:19:08.760Z,90.53
2017-05-27T03:20:10.221Z,89.86
2017-05-27T03:21:11.684Z,90.05
2017-05-27T03:22:13.151Z,90.15
2017-05-27T03:23:14.619Z,89.52
2017-05-27T03:24:16.076Z,88.90
2017-05-27T03:25:17.528Z,89.00
2017-05-27T03:26:18.998Z,89.48
2017-05-27T03:27:20.456Z,89.29
2017-05-27T03:28:21.917Z,90.05
2017-05-27T03:29:23.376Z,89.95
2017-05-27T03:30:24.849Z,89.67
2017-05-27T03:31:26.301Z,89.48
2017-05-27T03:32:27.759Z,89.38
2017-05-27T03:33:29.218Z,89.58
2017-05-27T03:34:30.673Z,89.76
2017-05-27T03:35:32.134Z,89.76
2017-05-27T03:36:33.600Z,89.86
2017-05-27T03:37:35.055Z,89.29
2017-05-27T03:38:36.512Z,89.00
2017-05-27T03:39:37.967Z,89.38
2017-05-27T03:40:39.423Z,88.81
2017-05-27T03:41:40.890Z,89.29
2017-05-27T03:42:42.347Z,89.19
2017-05-27T03:43:43.813Z,89.09
2017-05-27T03:44:45.271Z,89.19
2017-05-27T03:45:46.731Z,89.00
2017-05-27T03:46:48.192Z,89.09
2017-05-27T03:47:49.660Z,89.95
2017-05-27T03:48:51.120Z,89.67
2017-05-27T03:49:52.583Z,89.95
2017-05-27T03:50:54.037Z,89.19
2017-05-27T03:51:55.494Z,89.29
2017-05-27T03:52:56.955Z,89.38
2017-05-27T03:53:58.410Z,89.29
2017-05-27T03:54:59.864Z,89.67
2017-05-27T03:56:02.106Z,89.86
2017-05-27T03:57:03.567Z,90.05
2017-05-27T03:58:05.035Z,89.00
2017-05-27T03:59:06.500Z,89.19
2017-05-27T04:00:07.957Z,88.71
2017-05-27T04:01:09.422Z,89.19
2017-05-27T04:02:10.875Z,89.38
2017-05-27T04:03:12.336Z,89.38
2017-05-27T04:04:13.793Z,89.14
2017-05-27T04:05:15.257Z,89.00
2017-05-27T04:06:16.760Z,88.90
2017-05-27T04:07:18.217Z,88.81
2017-05-27T04:08:19.702Z,89.00
2017-05-27T04:09:21.162Z,89.29
2017-05-27T04:10:22.623Z,89.29
2017-05-27T04:11:24.081Z,89.38
2017-05-27T04:12:25.549Z,89.09
2017-05-27T04:13:27.005Z,89.38
2017-05-27T04:14:28.477Z,88.56
2017-05-27T04:15:29.936Z,88.85
2017-05-27T04:16:31.408Z,88.85
2017-05-27T04:17:32.873Z,89.33
2017-05-27T04:18:34.340Z,88.56
2017-05-27T04:19:35.809Z,88.76
2017-05-27T04:20:37.267Z,88.18
2017-05-27T04:21:38.734Z,88.37
2017-05-27T04:22:40.202Z,87.70
2017-05-27T04:23:41.657Z,86.84
2017-05-27T04:24:43.128Z,86.79
2017-05-27T04:25:44.580Z,86.41
2017-05-27T04:26:46.046Z,86.31
2017-05-27T04:27:47.503Z,85.39
2017-05-27T04:28:48.961Z,83.95
2017-05-27T04:29:50.420Z,82.37
2017-05-27T04:30:51.880Z,81.51
2017-05-27T04:31:53.341Z,79.91
2017-05-27T04:32:54.797Z,78.99
2017-05-27T04:33:56.257Z,78.03
2017-05-27T04:34:57.718Z,77.36
2017-05-27T04:35:59.179Z,76.25
2017-05-27T04:37:00.639Z,75.57
2017-05-27T04:38:02.109Z,74.75
2017-05-27T04:39:03.567Z,73.98
2017-05-27T04:40:05.026Z,72.54
2017-05-27T04:41:06.489Z,72.09
2017-05-27T04:42:07.949Z,71.71
2017-05-27T04:43:09.409Z,71.61
2017-05-27T04:44:10.882Z,71.71
2017-05-27T04:45:12.346Z,71.14
2017-05-27T04:46:13.812Z,70.94
2017-05-27T04:47:15.275Z,70.27
2017-05-27T04:48:16.739Z,69.53
2017-05-27T04:49:18.205Z,69.44
2017-05-27T04:50:19.687Z,68.99
2017-05-27T04:51:21.131Z,68.86
2017-05-27T04:52:22.594Z,68.51
2017-05-27T04:53:24.064Z,67.49
2017-05-27T04:54:25.522Z,66.27
2017-05-27T04:55:26.999Z,65.01
2017-05-27T04:56:28.463Z,64.43
2017-05-27T04:57:29.952Z,65.66
2017-05-27T04:58:31.416Z,66.78
2017-05-27T04:59:32.884Z,68.86
2017-05-27T05:00:34.343Z,71.04
2017-05-27T05:01:35.815Z,72.34
2017-05-27T05:02:37.276Z,73.75
2017-05-27T05:03:38.741Z,73.94
2017-05-27T05:04:40.206Z,74.81
2017-05-27T05:05:41.673Z,75.45
2017-05-27T05:06:43.150Z,76.06
2017-05-27T05:07:44.621Z,75.92
2017-05-27T05:08:46.077Z,76.31
2017-05-27T05:09:47.554Z,75.92
2017-05-27T05:10:49.019Z,76.50
2017-05-27T05:11:50.482Z,76.40
2017-05-27T05:12:51.963Z,76.88
2017-05-27T05:13:53.425Z,76.69
2017-05-27T05:14:54.886Z,76.98
2017-05-27T05:15:56.349Z,77.46
2017-05-27T05:16:57.823Z,77.17
2017-05-27T05:17:59.290Z,77.65
2017-05-27T05:19:00.758Z,77.26
2017-05-27T05:20:02.219Z,77.26
2017-05-27T05:21:03.683Z,77.36
2017-05-27T05:22:05.158Z,77.84
2017-05-27T05:23:06.625Z,77.65
2017-05-27T05:24:08.086Z,77.84
2017-05-27T05:25:09.551Z,77.46
2017-05-27T05:26:11.077Z,77.75
2017-05-27T05:27:12.547Z,77.46
2017-05-27T05:28:14.011Z,77.56
2017-05-27T05:29:15.486Z,77.46
2017-05-27T05:30:16.965Z,77.65
2017-05-27T05:31:18.427Z,77.56
2017-05-27T05:32:19.891Z,77.36
2017-05-27T05:33:21.348Z,77.36
2017-05-27T05:34:22.813Z,77.36
2017-05-27T05:35:24.281Z,77.65
2017-05-27T05:36:25.746Z,77.36
2017-05-27T05:37:27.213Z,76.82
2017-05-27T05:38:28.678Z,77.11
2017-05-27T05:39:30.140Z,76.34
2017-05-27T05:40:31.597Z,77.11
2017-05-27T05:41:33.064Z,76.92
2017-05-27T05:42:34.527Z,77.01
2017-05-27T05:43:35.992Z,77.40
2017-05-27T05:44:37.463Z,76.73
2017-05-27T05:45:38.927Z,76.64
2017-05-27T05:46:40.393Z,76.54
2017-05-27T05:47:41.853Z,77.01
2017-05-27T05:48:43.314Z,75.87
2017-05-27T05:49:44.784Z,76.39
2017-05-27T05:50:46.252Z,76.19
2017-05-27T05:51:47.730Z,75.52
2017-05-27T05:52:49.198Z,75.90
2017-05-27T05:53:50.663Z,75.62
2017-05-27T05:54:52.120Z,75.32
2017-05-27T05:55:53.582Z,75.32
2017-05-27T05:56:55.045Z,74.55
2017-05-27T05:57:56.509Z,74.50
2017-05-27T05:58:57.986Z,74.98
2017-05-27T05:59:59.451Z,74.11
2017-05-27T06:01:00.915Z,74.21
2017-05-27T06:02:02.375Z,73.54
2017-05-27T06:03:03.850Z,73.54
2017-05-27T06:04:05.306Z,73.83
2017-05-27T06:05:06.784Z,73.63
2017-05-27T06:06:08.252Z,73.83
2017-05-27T06:07:09.716Z,73.54
2017-05-27T06:08:11.179Z,72.67
2017-05-27T06:09:12.638Z,73.19
2017-05-27T06:10:14.102Z,73.00
2017-05-27T06:11:15.566Z,72.80
2017-05-27T06:12:17.025Z,72.52
2017-05-27T06:13:18.490Z,72.52
2017-05-27T06:14:19.951Z,72.71
2017-05-27T06:15:21.436Z,72.61
2017-05-27T06:16:22.901Z,72.61
2017-05-27T06:17:24.367Z,72.55
2017-05-27T06:18:25.830Z,72.07
2017-05-27T06:19:27.290Z,71.94
2017-05-27T06:20:28.755Z,72.26
2017-05-27T06:21:30.221Z,71.97
2017-05-27T06:22:31.680Z,71.59
2017-05-27T06:23:33.143Z,71.49
2017-05-27T06:24:34.599Z,71.59
2017-05-27T06:25:36.062Z,71.97
2017-05-27T06:26:37.527Z,70.92
2017-05-27T06:27:38.993Z,70.66
2017-05-27T06:28:40.454Z,71.30
2017-05-27T06:29:41.916Z,70.95
2017-05-27T06:30:43.379Z,70.56
2017-05-27T06:31:44.842Z,69.79
2017-05-27T06:32:46.306Z,69.99
2017-05-27T06:33:47.767Z,69.70
2017-05-27T06:34:49.234Z,69.31
2017-05-27T06:35:50.698Z,69.60
2017-05-27T06:36:52.178Z,69.25
2017-05-27T06:37:53.640Z,69.45
2017-05-27T06:38:55.103Z,68.68
2017-05-27T06:39:56.570Z,68.58
2017-05-27T06:40:58.037Z,68.68
2017-05-27T06:41:59.500Z,68.58
2017-05-27T06:43:00.969Z,69.06
2017-05-27T06:44:02.427Z,68.87
2017-05-27T06:45:03.898Z,68.68
2017-05-27T06:46:05.383Z,68.61
2017-05-27T06:47:06.849Z,68.38
2017-05-27T06:48:08.313Z,68.23
2017-05-27T06:49:09.785Z,67.46
2017-05-27T06:50:11.260Z,68.13
2017-05-27T06:51:12.722Z,67.36
2017-05-27T06:52:14.185Z,67.26
2017-05-27T06:53:15.651Z,67.16
2017-05-27T06:54:17.125Z,66.88
2017-05-27T06:55:18.588Z,66.20
2017-05-27T06:56:20.065Z,66.24
2017-05-27T06:57:21.533Z,66.24
2017-05-27T06:58:23.014Z,66.62
2017-05-27T06:59:24.483Z,66.04
2017-05-27T07:00:25.977Z,66.27
2017-05-27T07:01:27.433Z,65.59
2017-05-27T07:02:28.902Z,64.79
2017-05-27T07:03:30.380Z,65.11
2017-05-27T07:04:31.847Z,63.85
2017-05-27T07:05:33.320Z,64.53
2017-05-27T07:06:34.788Z,64.56
2017-05-27T07:07:36.310Z,63.60
2017-05-27T07:08:37.788Z,63.40
2017-05-27T07:09:39.265Z,63.09
2017-05-27T07:10:40.740Z,62.70
2017-05-27T07:11:42.209Z,63.50
2017-05-27T07:12:43.676Z,62.34
2017-05-27T07:13:45.143Z,62.82
2017-05-27T07:14:46.616Z,61.38
2017-05-27T07:15:48.079Z,61.86
2017-05-27T07:16:49.554Z,62.73
2017-05-27T07:17:51.050Z,62.82
2017-05-27T07:18:52.526Z,61.86
2017-05-27T07:19:53.992Z,62.44
2017-05-27T07:20:55.465Z,62.28
2017-05-27T07:21:56.935Z,61.80
2017-05-27T07:22:58.403Z,60.28
2017-05-27T07:23:59.873Z,59.70
2017-05-27T07:25:01.352Z,59.80
2017-05-27T07:26:03.764Z,60.69
2017-05-27T07:27:05.236Z,59.92
2017-05-27T07:28:06.710Z,58.76
2017-05-27T07:29:08.200Z,59.15
2017-05-27T07:30:09.668Z,58.57
2017-05-27T07:31:11.147Z,58.47
2017-05-27T07:32:12.611Z,58.93
2017-05-27T07:33:14.091Z,59.60
2017-05-27T07:34:15.569Z,60.28
2017-05-27T07:35:17.041Z,60.28
2017-05-27T07:36:18.517Z,59.34
2017-05-27T07:37:19.988Z,58.47
2017-05-27T07:38:21.466Z,58.40
2017-05-27T07:39:22.949Z,57.20
2017-05-27T07:40:24.442Z,55.30
2017-05-27T07:41:25.913Z,55.58
2017-05-27T07:42:27.387Z,54.79
2017-05-27T07:43:28.863Z,55.27
2017-05-27T07:44:30.372Z,55.58
2017-05-27T07:45:31.855Z,52.93
2017-05-27T07:46:33.327Z,52.22
2017-05-27T07:47:34.799Z,52.51
2017-05-27T07:48:36.285Z,53.26
2017-05-27T07:49:37.761Z,52.90
2017-05-27T07:50:39.288Z,52.03
2017-05-27T07:51:40.764Z,51.67
2017-05-27T07:52:42.242Z,50.89
2017-05-27T07:53:43.722Z,50.31
2017-05-27T07:54:45.215Z,50.48
2017-05-27T07:55:46.700Z,51.57
2017-05-27T07:56:48.185Z,49.75
2017-05-27T07:57:49.667Z,49.92
2017-05-27T07:58:51.141Z,50.31
2017-05-27T07:59:52.623Z,50.57
2017-05-27T08:00:54.099Z,48.10
2017-05-27T08:01:55.582Z,48.66
2017-05-27T08:02:57.054Z,48.59
2017-05-27T08:03:58.585Z,47.33
2017-05-27T08:05:00.062Z,46.98
2017-05-27T08:06:03.149Z,47.33
2017-05-27T08:07:04.634Z,46.96
2017-05-27T08:08:06.125Z,45.57
2017-05-27T08:09:07.601Z,44.53
2017-05-27T08:10:09.079Z,42.35
2017-05-27T08:11:10.555Z,40.80
2017-05-27T08:12:12.032Z,40.31
2017-05-27T08:13:13.520Z,41.36
2017-05-27T08:14:15.023Z,40.41
2017-05-27T08:15:16.496Z,42.66
2017-05-27T08:16:17.989Z,44.07
2017-05-27T08:17:19.481Z,44.31
2017-05-27T08:18:20.956Z,42.50
2017-05-27T08:19:22.443Z,41.63
2017-05-27T08:20:23.922Z,40.21
2017-05-27T08:21:25.406Z,40.27
2017-05-27T08:22:26.883Z,40.85
2017-05-27T08:23:28.366Z,40.75
2017-05-27T08:24:29.859Z,41.93
2017-05-27T08:25:31.337Z,40.78
2017-05-27T08:26:32.814Z,39.41
2017-05-27T08:27:34.293Z,39.22
2017-05-27T08:28:35.782Z,38.30
2017-05-27T08:29:37.259Z,37.54
2017-05-27T08:30:38.739Z,36.94
2017-05-27T08:31:40.220Z,37.35
2017-05-27T08:32:41.698Z,38.96
2017-05-27T08:33:43.178Z,37.89
2017-05-27T08:34:44.667Z,38.01
2017-05-27T08:35:46.143Z,36.86
2017-05-27T08:36:47.635Z,36.66
2017-05-27T08:37:49.117Z,35.80
2017-05-27T08:38:50.605Z,36.84
2017-05-27T08:39:52.078Z,36.76
2017-05-27T08:40:53.568Z,36.19
2017-05-27T08:41:55.050Z,35.61
2017-05-27T08:42:56.531Z,35.59
2017-05-27T08:43:58.024Z,35.38
2017-05-27T08:44:59.506Z,34.89
2017-05-27T08:46:01.977Z,38.46
2017-05-27T08:47:03.461Z,37.54
2017-05-27T08:48:04.937Z,33.80
2017-05-27T08:49:06.423Z,32.07
2017-05-27T08:50:07.921Z,32.82
2017-05-27T08:51:09.399Z,35.30
2017-05-27T08:52:10.885Z,36.55
2017-05-27T08:53:12.365Z,35.51
2017-05-27T08:54:13.900Z,34.55
2017-05-27T08:55:15.380Z,35.02
2017-05-27T08:56:16.872Z,34.83
2017-05-27T08:57:18.349Z,35.12
2017-05-27T08:58:19.841Z,35.59
2017-05-27T08:59:21.329Z,35.57
2017-05-27T09:00:22.813Z,34.71
2017-05-27T09:01:24.305Z,35.61
2017-05-27T09:02:25.986Z,33.98
2017-05-27T09:03:27.463Z,33.75
2017-05-27T09:04:28.954Z,36.12
2017-05-27T09:05:30.456Z,36.82
2017-05-27T09:06:31.939Z,35.57
2017-05-27T09:07:33.418Z,36.45
2017-05-27T09:08:34.898Z,35.98
2017-05-27T09:09:36.389Z,34.09
2017-05-27T09:10:37.874Z,34.05
2017-05-27T09:11:39.370Z,34.65
2017-05-27T09:12:40.881Z,33.70
2017-05-27T09:13:42.362Z,33.14
2017-05-27T09:14:43.841Z,31.77
2017-05-27T09:15:45.340Z,33.83
2017-05-27T09:16:46.840Z,34.34
2017-05-27T09:17:48.336Z,35.69
2017-05-27T09:18:49.827Z,34.00
2017-05-27T09:19:51.324Z,32.16
2017-05-27T09:20:52.844Z,32.07
2017-05-27T09:21:54.357Z,31.51
2017-05-27T09:22:55.840Z,30.57
2017-05-27T09:23:57.323Z,30.33
2017-05-27T09:24:58.810Z,32.20
2017-05-27T09:26:01.575Z,31.23
2017-05-27T09:27:02.396Z,29.68
2017-05-27T09:28:03.890Z,29.98
2017-05-27T09:29:05.371Z,28.82
2017-05-27T09:30:06.849Z,27.95
2017-05-27T09:31:08.331Z,28.43
2017-05-27T09:32:09.820Z,28.92
2017-05-27T09:33:11.309Z,29.59
2017-05-27T09:34:12.794Z,28.92
2017-05-27T09:35:14.282Z,29.16
2017-05-27T09:36:15.777Z,31.59
2017-05-27T09:37:17.274Z,29.70
2017-05-27T09:38:18.758Z,28.63
2017-05-27T09:39:20.245Z,29.03
2017-05-27T09:40:21.728Z,28.83
2017-05-27T09:41:23.219Z,27.49
2017-05-27T09:42:24.702Z,29.11
2017-05-27T09:43:26.191Z,28.81
2017-05-27T09:44:27.671Z,28.43
2017-05-27T09:45:29.155Z,30.54
2017-05-27T09:46:30.641Z,29.14
2017-05-27T09:47:32.130Z,29.28
2017-05-27T09:48:33.615Z,27.49
2017-05-27T09:49:35.101Z,28.54
2017-05-27T09:50:36.585Z,27.55
2017-05-27T09:51:38.067Z,28.00
2017-05-27T09:52:39.549Z,27.63
2017-05-27T09:53:41.032Z,27.01
2017-05-27T09:54:42.517Z,26.75
2017-05-27T09:55:44.001Z,27.24
2017-05-27T09:56:45.504Z,27.55
2017-05-27T09:57:46.989Z,27.64
2017-05-27T09:58:48.496Z,27.35
2017-05-27T09:59:49.971Z,27.74
2017-05-27T10:00:51.459Z,27.29
2017-05-27T10:01:52.950Z,26.31
2017-05-27T10:02:54.434Z,27.47
2017-05-27T10:03:55.916Z,25.94
2017-05-27T10:04:57.392Z,25.93
2017-05-27T10:05:58.895Z,25.15
2017-05-27T10:07:00.377Z,27.18
2017-05-27T10:08:01.863Z,26.50
2017-05-27T10:09:03.350Z,27.57
2017-05-27T10:10:04.833Z,27.49
2017-05-27T10:11:06.319Z,25.43
2017-05-27T10:12:07.799Z,25.56
2017-05-27T10:13:09.284Z,27.92
2017-05-27T10:14:10.766Z,29.07
2017-05-27T10:15:12.259Z,29.00
2017-05-27T10:16:13.752Z,30.43
2017-05-27T10:17:15.233Z,29.55
2017-05-27T10:18:16.716Z,28.47
2017-05-27T10:19:18.201Z,27.66
2017-05-27T10:20:19.687Z,27.40
2017-05-27T10:21:21.169Z,25.89
2017-05-27T10:22:22.654Z,25.42
2017-05-27T10:23:24.139Z,25.88
2017-05-27T10:24:25.622Z,25.68
2017-05-27T10:25:27.111Z,25.01
2017-05-27T10:26:28.594Z,25.95
2017-05-27T10:27:30.081Z,26.64
2017-05-27T10:28:31.569Z,25.98
2017-05-27T10:29:33.050Z,26.27
2017-05-27T10:30:34.534Z,24.76
2017-05-27T10:31:36.022Z,22.74
2017-05-27T10:32:37.502Z,21.77
2017-05-27T10:33:38.982Z,20.48
2017-05-27T10:34:40.462Z,22.41
2017-05-27T10:35:41.944Z,22.31
2017-05-27T10:36:43.448Z,24.63
2017-05-27T10:37:44.933Z,22.92
2017-05-27T10:38:46.419Z,22.63
2017-05-27T10:39:47.920Z,21.64
2017-05-27T10:40:49.389Z,22.82
2017-05-27T10:41:50.866Z,21.97
2017-05-27T10:42:52.355Z,21.28
2017-05-27T10:43:53.836Z,23.95
2017-05-27T10:44:55.326Z,24.16
2017-05-27T10:45:56.807Z,24.92
2017-05-27T10:46:58.291Z,25.61
2017-05-27T10:47:59.775Z,24.63
2017-05-27T10:49:01.256Z,25.15
2017-05-27T10:50:02.741Z,23.86
2017-05-27T10:51:04.228Z,23.85
2017-05-27T10:52:05.716Z,25.40
2017-05-27T10:53:07.205Z,25.42
2017-05-27T10:54:08.687Z,24.55
2017-05-27T10:55:10.177Z,23.46
2017-05-27T10:56:11.670Z,24.15
2017-05-27T10:57:13.157Z,24.42
2017-05-27T10:58:14.638Z,26.51
2017-05-27T10:59:16.120Z,26.84
2017-05-27T11:00:17.608Z,24.64
2017-05-27T11:01:19.091Z,24.99
2017-05-27T11:02:20.573Z,25.12
2017-05-27T11:03:22.061Z,24.54
2017-05-27T11:04:23.545Z,23.95
2017-05-27T11:05:25.027Z,24.24
2017-05-27T11:06:26.511Z,23.86
2017-05-27T11:07:28.003Z,23.17
2017-05-27T11:08:29.488Z,22.13
2017-05-27T11:09:31.006Z,21.15
2017-05-27T11:10:32.481Z,21.44
2017-05-27T11:11:34.077Z,21.75
2017-05-27T11:12:35.558Z,21.07
2017-05-27T11:13:37.038Z,21.44
2017-05-27T11:14:38.526Z,20.87
2017-05-27T11:15:40.016Z,20.28
2017-05-27T11:16:41.499Z,22.80
2017-05-27T11:17:42.982Z,22.92
2017-05-27T11:18:44.465Z,22.80
2017-05-27T11:19:45.953Z,24.46
2017-05-27T11:20:47.452Z,24.74
2017-05-27T11:21:48.939Z,24.64
2017-05-27T11:22:50.422Z,23.89
2017-05-27T11:23:51.906Z,22.92
2017-05-27T11:24:53.384Z,22.13
2017-05-27T11:25:54.884Z,23.19
2017-05-27T11:26:56.415Z,23.88
2017-05-27T11:27:57.856Z,23.47
2017-05-27T11:28:59.338Z,23.85
2017-05-27T11:30:00.833Z,24.65
2017-05-27T11:31:02.331Z,23.97
2017-05-27T11:32:03.821Z,22.62
2017-05-27T11:33:05.301Z,21.67
2017-05-27T11:34:06.791Z,19.74
2017-05-27T11:35:08.275Z,19.90
2017-05-27T11:36:09.773Z,22.89
2017-05-27T11:37:11.277Z,24.90
2017-05-27T11:38:12.762Z,24.62
2017-05-27T11:39:14.250Z,24.51
2017-05-27T11:40:15.735Z,25.87
2017-05-27T11:41:17.220Z,25.10
2017-05-27T11:42:18.702Z,24.84
2017-05-27T11:43:20.192Z,24.27
2017-05-27T11:44:21.676Z,23.93
2017-05-27T11:45:23.158Z,24.90
2017-05-27T11:46:24.651Z,25.28
2017-05-27T11:47:26.138Z,23.85
2017-05-27T11:48:27.625Z,22.67
2017-05-27T11:49:29.142Z,21.88
2017-05-27T11:50:30.635Z,22.28
2017-05-27T11:51:32.124Z,21.90
2017-05-27T11:52:33.604Z,23.05
2017-05-27T11:53:35.085Z,22.77
2017-05-27T11:54:36.572Z,23.16
2017-05-27T11:55:38.075Z,22.10
2017-05-27T11:56:39.573Z,21.12
2017-05-27T11:57:41.066Z,21.92
2017-05-27T11:58:42.554Z,19.73
2017-05-27T11:59:44.039Z,17.63
2017-05-27T12:00:45.534Z,20.14
2017-05-27T12:01:47.036Z,20.53
2017-05-27T12:02:48.522Z,20.15
2017-05-27T12:03:50.010Z,20.15
2017-05-27T12:04:51.509Z,19.66
2017-05-27T12:05:53.007Z,21.51
2017-05-27T12:06:54.491Z,20.54
2017-05-27T12:07:55.989Z,20.35
2017-05-27T12:08:57.496Z,19.96
2017-05-27T12:09:58.987Z,20.06
2017-05-27T12:11:00.495Z,20.25
2017-05-27T12:12:01.995Z,20.34
2017-05-27T12:13:03.485Z,19.88
2017-05-27T12:14:04.974Z,18.80
2017-05-27T12:15:06.465Z,18.71
2017-05-27T12:16:07.984Z,18.41
2017-05-27T12:17:09.476Z,18.90
2017-05-27T12:18:10.971Z,18.50
2017-05-27T12:19:12.465Z,18.61
2017-05-27T12:20:13.951Z,18.41
2017-05-27T12:21:15.438Z,18.51
2017-05-27T12:22:16.927Z,18.12
2017-05-27T12:23:18.412Z,18.79
2017-05-27T12:24:19.898Z,19.17
2017-05-27T12:25:21.385Z,20.35
2017-05-27T12:26:22.871Z,20.80
2017-05-27T12:27:24.358Z,20.81
2017-05-27T12:28:25.839Z,20.42
2017-05-27T12:29:27.321Z,21.02
2017-05-27T12:30:28.807Z,19.57
2017-05-27T12:31:30.287Z,18.90
2017-05-27T12:32:31.771Z,18.51
2017-05-27T12:33:33.261Z,17.73
2017-05-27T12:34:34.746Z,20.73
2017-05-27T12:35:36.227Z,18.80
2017-05-27T12:36:37.709Z,18.42
2017-05-27T12:37:39.197Z,19.67
2017-05-27T12:38:40.702Z,20.85
2017-05-27T12:39:42.187Z,20.64
2017-05-27T12:40:43.667Z,19.00
2017-05-27T12:41:45.159Z,18.31
2017-05-27T12:42:46.642Z,19.67
2017-05-27T12:43:48.123Z,18.30
2017-05-27T12:44:49.610Z,18.70
2017-05-27T12:45:51.092Z,18.42
2017-05-27T12:46:52.578Z,18.32
2017-05-27T12:47:54.069Z,18.40
2017-05-27T12:48:55.575Z,18.32
2017-05-27T12:49:57.065Z,18.99
2017-05-27T12:50:58.561Z,18.04
2017-05-27T12:52:00.048Z,17.07
2017-05-27T12:53:01.531Z,17.06
2017-05-27T12:54:03.080Z,17.24
2017-05-27T12:55:04.522Z,16.75
2017-05-27T12:56:06.018Z,16.74
2017-05-27T12:57:07.503Z,16.46
2017-05-27T12:58:08.995Z,16.94
2017-05-27T12:59:10.477Z,18.10
2017-05-27T13:00:11.960Z,18.02
2017-05-27T13:01:13.461Z,17.62
2017-05-27T13:02:14.969Z,18.11
2017-05-27T13:03:16.546Z,19.07
2017-05-27T13:04:18.067Z,19.57
2017-05-27T13:05:19.550Z,19.06
2017-05-27T13:06:21.042Z,20.32
2017-05-27T13:07:22.562Z,19.06
2017-05-27T13:08:24.033Z,18.69
2017-05-27T13:09:25.606Z,18.38
2017-05-27T13:10:27.096Z,18.96
2017-05-27T13:11:28.582Z,20.32